»·PEaware :: N95KA KSNA-KTEX

N95KA :: KSNA-KTEX

FLIGHT INFORMATION

Flight Status: Arrived
Operator: Privately registered:
United States
More flights under this callsign
Pilot: Joe C. (32102)
Aircraft: CANADAIR CL-600 CHALLENGER
(CL60)
More flights by this aircraft type
Origin: KSNA John Wayne-Orange Co
United States
Destination: KTEX Telluride Regl
United States
More flights between these airports :: More routes between these airports
Route: PIGGN3 AVRRY EED ETL
File this flight plan on PilotEdge
Remarks:
Altitude:
(Current/Filed)
39,000ft
Speed:
(Current/Filed)
464kts
Departed: 02-Sep-23 11:00 AM
Arrived: 02-Sep-23 12:19 PM
Distance/Time
Traveled:
548nm/1:19
Distance/Time
To Go:
Arrived

Flight Plot

Page will automatically refresh every two minutes.

Flight plan parsing failed; only flown route is shown


Map Options




Map Legend


Flown Route
Filed Route
Departure Airport
Arrival Airport
Navaid (VOR, NDB)
Fix

Horizontal Profiles

Position Reports

Time Latitude Longitude Heading Altitude Ground
Speed
02-Sep-23 10:37 33.673582 -117.872251 20 54ft 0kts
02-Sep-23 10:38 33.673582 -117.872251 20 54ft 0kts
02-Sep-23 10:40 33.673582 -117.872251 20 54ft 0kts
02-Sep-23 10:41 33.673582 -117.872251 20 54ft 0kts
02-Sep-23 10:42 33.673582 -117.872251 20 54ft 0kts
02-Sep-23 10:43 33.673582 -117.872251 20 54ft 0kts
02-Sep-23 10:44 33.673582 -117.872251 20 54ft 0kts
02-Sep-23 10:45 33.673582 -117.872251 20 54ft 0kts
02-Sep-23 10:46 33.673582 -117.872251 20 54ft 0kts
02-Sep-23 10:47 33.673582 -117.872251 20 54ft 0kts
02-Sep-23 10:48 33.673582 -117.872251 20 54ft 0kts
02-Sep-23 10:49 33.673582 -117.872251 20 54ft 0kts
02-Sep-23 10:50 33.673582 -117.872251 20 54ft 0kts
02-Sep-23 10:51 33.673582 -117.872251 20 54ft 0kts
02-Sep-23 10:52 33.673582 -117.872251 20 54ft 0kts
02-Sep-23 10:53 33.673582 -117.872251 20 54ft 0kts
02-Sep-23 10:54 33.673582 -117.872251 20 54ft 0kts
02-Sep-23 10:55 33.673582 -117.872251 20 54ft 0kts
02-Sep-23 10:56 33.673582 -117.872251 20 54ft 0kts
02-Sep-23 10:57 33.674629 -117.870989 27 54ft 18kts
02-Sep-23 10:58 33.679773 -117.867892 17 47ft 18kts
02-Sep-23 10:59 33.681158 -117.866321 115 44ft 6kts
02-Sep-23 11:00 33.677952 -117.867410 207 49ft 97kts
02-Sep-23 11:01 33.629514 -117.896178 182 2261ft 241kts
02-Sep-23 11:02 33.556778 -117.890539 152 5254ft 282kts
02-Sep-23 11:03 33.496533 -117.832106 118 10346ft 297kts
02-Sep-23 11:04 33.478020 -117.733595 87 14738ft 323kts
02-Sep-23 11:05 33.513855 -117.628734 62 17893ft 367kts
02-Sep-23 11:05 33.558101 -117.535895 61 20263ft 393kts
02-Sep-23 11:06 33.581583 -117.408612 93 23009ft 404kts
02-Sep-23 11:08 33.577889 -117.246878 88 25894ft 426kts
02-Sep-23 11:09 33.605839 -117.105400 77 28178ft 441kts
02-Sep-23 11:09 33.628490 -116.983643 91 29743ft 450kts
02-Sep-23 11:10 33.624713 -116.829784 94 31437ft 463kts
02-Sep-23 11:11 33.620442 -116.671947 94 32793ft 477kts
02-Sep-23 11:12 33.615905 -116.510293 94 33910ft 488kts
02-Sep-23 11:14 33.610335 -116.317831 95 35201ft 492kts
02-Sep-23 11:14 33.606849 -116.181279 95 36177ft 489kts
02-Sep-23 11:15 33.613598 -116.017388 78 37121ft 495kts
02-Sep-23 11:16 33.660765 -115.860738 71 37848ft 499kts
02-Sep-23 11:17 33.710106 -115.704059 71 38566ft 498kts
02-Sep-23 11:18 33.773047 -115.555619 51 39127ft 500kts
02-Sep-23 11:19 33.874878 -115.439699 41 39578ft 500kts
02-Sep-23 11:20 33.979510 -115.327735 42 39571ft 499kts
02-Sep-23 11:21 34.083425 -115.216173 42 39591ft 499kts
02-Sep-23 11:22 34.188484 -115.103008 41 39591ft 506kts
02-Sep-23 11:23 34.295235 -114.987622 41 39593ft 516kts
02-Sep-23 11:24 34.402767 -114.870983 41 39612ft 518kts
02-Sep-23 11:25 34.510173 -114.754061 41 39606ft 516kts
02-Sep-23 11:26 34.617748 -114.636531 41 39597ft 516kts
02-Sep-23 11:27 34.724564 -114.519410 41 39601ft 515kts
02-Sep-23 11:28 34.816640 -114.385997 55 39602ft 514kts
02-Sep-23 11:29 34.898834 -114.242472 56 39614ft 514kts
02-Sep-23 11:30 34.980937 -114.098573 56 39643ft 516kts
02-Sep-23 11:31 35.063070 -113.954063 56 39674ft 517kts
02-Sep-23 11:32 35.145231 -113.808924 56 39696ft 513kts
02-Sep-23 11:33 35.226120 -113.665453 56 39698ft 511kts
02-Sep-23 11:34 35.306783 -113.521797 56 39712ft 511kts
02-Sep-23 11:35 35.387585 -113.377305 56 39725ft 512kts
02-Sep-23 11:36 35.468391 -113.232213 57 39755ft 512kts
02-Sep-23 11:37 35.548629 -113.087545 57 39773ft 510kts
02-Sep-23 11:38 35.627870 -112.944082 57 39791ft 508kts
02-Sep-23 11:39 35.707064 -112.800112 57 39802ft 506kts
02-Sep-23 11:40 35.786276 -112.655505 57 39806ft 505kts
02-Sep-23 11:41 35.864750 -112.511643 57 39810ft 505kts
02-Sep-23 11:42 35.943233 -112.367168 56 39815ft 505kts
02-Sep-23 11:43 36.021964 -112.221626 57 39815ft 504kts
02-Sep-23 11:44 36.100334 -112.076138 57 39813ft 503kts
02-Sep-23 11:45 36.177926 -111.931481 57 39806ft 502kts
02-Sep-23 11:46 36.254970 -111.787230 57 39792ft 501kts
02-Sep-23 11:47 36.332084 -111.642245 57 39771ft 501kts
02-Sep-23 11:48 36.408835 -111.497325 57 39750ft 502kts
02-Sep-23 11:49 36.485981 -111.351025 57 39735ft 503kts
02-Sep-23 11:50 36.562917 -111.204505 58 39728ft 502kts
02-Sep-23 11:51 36.639437 -111.058147 58 39725ft 502kts
02-Sep-23 11:52 36.715871 -110.911314 58 39729ft 504kts
02-Sep-23 11:53 36.792318 -110.763820 58 39731ft 504kts
02-Sep-23 11:54 36.868629 -110.615943 58 39740ft 502kts
02-Sep-23 11:55 36.944253 -110.468745 58 39734ft 504kts
02-Sep-23 11:56 37.020287 -110.320092 58 39730ft 505kts
02-Sep-23 11:57 37.095909 -110.171591 59 39729ft 503kts
02-Sep-23 11:58 37.171254 -110.022976 59 39725ft 500kts
02-Sep-23 11:59 37.244913 -109.877056 59 39701ft 485kts
02-Sep-23 12:00 37.316917 -109.733768 59 39847ft 481kts
02-Sep-23 12:01 37.390093 -109.587494 59 37539ft 485kts
02-Sep-23 12:02 37.462800 -109.441532 59 35151ft 484kts
02-Sep-23 12:03 37.535097 -109.295756 60 32755ft 477kts
02-Sep-23 12:04 37.604551 -109.155120 59 30461ft 460kts
02-Sep-23 12:05 37.671774 -109.018396 60 28110ft 450kts
02-Sep-23 12:06 37.736791 -108.885544 60 25774ft 431kts
02-Sep-23 12:07 37.799062 -108.757872 59 23462ft 413kts
02-Sep-23 12:08 37.858801 -108.634866 60 21090ft 397kts
02-Sep-23 12:09 37.915532 -108.517686 60 18854ft 380kts
02-Sep-23 12:10 37.969569 -108.405680 60 16743ft 364kts
02-Sep-23 12:11 38.021566 -108.297650 60 14397ft 347kts
02-Sep-23 12:12 38.020662 -108.194627 111 13493ft 255kts
02-Sep-23 12:13 37.999852 -108.126708 110 13254ft 163kts
02-Sep-23 12:14 37.987304 -108.068300 107 12059ft 178kts
02-Sep-23 12:15 37.974940 -108.009303 104 10205ft 159kts
02-Sep-23 12:16 37.963403 -107.954348 104 9392ft 159kts
02-Sep-23 12:17 37.952960 -107.904911 103 9038ft 58kts
02-Sep-23 12:18 37.953424 -107.901461 300 9062ft 10kts
02-Sep-23 12:19 37.954095 -107.902786 285 9060ft 0kts
02-Sep-23 12:20 37.954095 -107.902786 285 9060ft 0kts
02-Sep-23 12:21 37.954095 -107.902786 285 9060ft 0kts
02-Sep-23 12:22 37.954095 -107.902786 285 9060ft 0kts
02-Sep-23 12:23 37.954095 -107.902786 285 9060ft 0kts
02-Sep-23 12:24 37.954095 -107.902786 285 9060ft 0kts
02-Sep-23 12:25 37.954095 -107.902786 285 9060ft 0kts
02-Sep-23 12:26 37.954095 -107.902786 285 9060ft 0kts
02-Sep-23 12:27 37.954095 -107.902786 285 9060ft 0kts
02-Sep-23 12:28 37.954095 -107.902786 285 9060ft 0kts

Navigation Log

Ident Type
Flight plan parsing failed, navigation log unavailable